sensor_id;sensor_type;location;lat;lon;timestamp;pressure;altitude;pressure_sealevel;temperature;humidity
46087;BME280;31824;49.648;8.640;2023-02-18T00:53:52;101201.34;;;11.99;100.00
46087;BME280;31824;49.648;8.640;2023-02-18T00:57:33;101199.88;;;11.94;100.00
46087;BME280;31824;49.648;8.640;2023-02-18T01:02:06;101201.03;;;11.96;100.00
46087;BME280;31824;49.648;8.640;2023-02-18T01:05:52;101195.88;;;11.89;100.00
46087;BME280;31824;49.648;8.640;2023-02-18T02:02:40;101202.38;;;11.41;100.00
46087;BME280;31824;49.648;8.640;2023-02-18T02:05:42;101192.47;;;11.47;100.00
46087;BME280;31824;49.648;8.640;2023-02-18T02:08:52;101183.00;;;11.32;100.00
46087;BME280;31824;49.648;8.640;2023-02-18T02:12:15;101172.78;;;11.35;100.00
46087;BME280;31824;49.648;8.640;2023-02-18T02:15:28;101169.53;;;11.29;100.00
46087;BME280;31824;49.648;8.640;2023-02-18T02:18:45;101169.81;;;11.23;100.00
46087;BME280;31824;49.648;8.640;2023-02-18T02:22:10;101163.66;;;11.31;100.00
46087;BME280;31824;49.648;8.640;2023-02-18T02:29:29;101152.31;;;11.24;100.00
46087;BME280;31824;49.648;8.640;2023-02-18T02:32:59;101147.53;;;11.28;100.00
46087;BME280;31824;49.648;8.640;2023-02-18T02:36:20;101147.19;;;11.17;100.00
46087;BME280;31824;49.648;8.640;2023-02-18T02:39:30;101145.06;;;11.30;100.00
46087;BME280;31824;49.648;8.640;2023-02-18T02:42:44;101150.44;;;11.23;100.00
46087;BME280;31824;49.648;8.640;2023-02-18T02:45:56;101132.56;;;11.36;100.00
46087;BME280;31824;49.648;8.640;2023-02-18T02:49:08;101136.31;;;11.56;100.00
46087;BME280;31824;49.648;8.640;2023-02-18T02:52:27;101132.41;;;11.43;100.00
46087;BME280;31824;49.648;8.640;2023-02-18T02:55:37;101124.41;;;11.51;100.00
46087;BME280;31824;49.648;8.640;2023-02-18T02:58:39;101129.38;;;11.56;100.00
46087;BME280;31824;49.648;8.640;2023-02-18T03:02:02;101133.69;;;11.56;100.00
46087;BME280;31824;49.648;8.640;2023-02-18T03:05:23;101126.59;;;11.55;100.00
46087;BME280;31824;49.648;8.640;2023-02-18T03:08:40;101129.53;;;11.58;100.00
46087;BME280;31824;49.648;8.640;2023-02-18T03:11:57;101113.06;;;11.52;100.00
46087;BME280;31824;49.648;8.640;2023-02-18T03:15:10;101123.16;;;11.56;100.00
46087;BME280;31824;49.648;8.640;2023-02-18T03:18:32;101122.22;;;11.55;100.00
46087;BME280;31824;49.648;8.640;2023-02-18T03:21:50;101116.38;;;11.66;100.00
46087;BME280;31824;49.648;8.640;2023-02-18T03:25:06;101110.34;;;11.59;100.00
46087;BME280;31824;49.648;8.640;2023-02-18T03:28:22;101112.66;;;11.64;100.00
46087;BME280;31824;49.648;8.640;2023-02-18T03:31:48;101111.72;;;11.55;100.00
46087;BME280;31824;49.648;8.640;2023-02-18T03:35:13;101109.06;;;11.46;100.00
46087;BME280;31824;49.648;8.640;2023-02-18T03:38:37;101113.53;;;11.47;100.00
46087;BME280;31824;49.648;8.640;2023-02-18T03:42:00;101108.28;;;11.47;100.00
46087;BME280;31824;49.648;8.640;2023-02-18T03:45:21;101107.81;;;11.43;100.00
46087;BME280;31824;49.648;8.640;2023-02-18T03:48:42;101114.78;;;11.42;100.00
46087;BME280;31824;49.648;8.640;2023-02-18T03:52:02;101116.78;;;11.45;100.00
46087;BME280;31824;49.648;8.640;2023-02-18T03:55:23;101111.06;;;11.40;100.00
46087;BME280;31824;49.648;8.640;2023-02-18T03:58:46;101106.44;;;11.46;100.00
46087;BME280;31824;49.648;8.640;2023-02-18T04:02:06;101108.63;;;11.59;100.00
46087;BME280;31824;49.648;8.640;2023-02-18T04:05:27;101115.91;;;11.62;100.00
46087;BME280;31824;49.648;8.640;2023-02-18T04:08:47;101118.66;;;11.46;100.00
46087;BME280;31824;49.648;8.640;2023-02-18T04:12:08;101123.44;;;11.50;100.00
46087;BME280;31824;49.648;8.640;2023-02-18T04:15:31;101125.19;;;11.58;100.00
46087;BME280;31824;49.648;8.640;2023-02-18T04:18:51;101122.22;;;11.46;100.00
46087;BME280;31824;49.648;8.640;2023-02-18T04:22:14;101123.81;;;11.62;100.00
46087;BME280;31824;49.648;8.640;2023-02-18T04:25:35;101118.22;;;11.59;100.00
46087;BME280;31824;49.648;8.640;2023-02-18T04:28:55;101120.38;;;11.54;100.00
46087;BME280;31824;49.648;8.640;2023-02-18T04:32:17;101114.63;;;11.49;100.00
46087;BME280;31824;49.648;8.640;2023-02-18T04:35:38;101109.19;;;11.39;100.00
46087;BME280;31824;49.648;8.640;2023-02-18T04:39:01;101114.78;;;11.42;100.00
46087;BME280;31824;49.648;8.640;2023-02-18T04:42:21;101107.22;;;11.54;100.00
46087;BME280;31824;49.648;8.640;2023-02-18T04:45:42;101103.34;;;11.59;100.00
46087;BME280;31824;49.648;8.640;2023-02-18T04:49:04;101106.09;;;11.35;100.00
46087;BME280;31824;49.648;8.640;2023-02-18T04:52:24;101114.78;;;11.42;100.00
46087;BME280;31824;49.648;8.640;2023-02-18T04:55:48;101111.06;;;11.40;100.00
46087;BME280;31824;49.648;8.640;2023-02-18T04:59:09;101099.75;;;11.41;100.00
46087;BME280;31824;49.648;8.640;2023-02-18T05:02:31;101109.69;;;11.44;100.00
46087;BME280;31824;49.648;8.640;2023-02-18T05:05:53;101106.09;;;11.35;100.00
46087;BME280;31824;49.648;8.640;2023-02-18T05:09:13;101099.91;;;11.43;100.00
46087;BME280;31824;49.648;8.640;2023-02-18T05:12:33;101116.63;;;11.35;100.00
46087;BME280;31824;49.648;8.640;2023-02-18T05:15:56;101112.31;;;11.53;100.00
46087;BME280;31824;49.648;8.640;2023-02-18T05:19:18;101112.63;;;11.47;100.00
46087;BME280;31824;49.648;8.640;2023-02-18T05:22:40;101109.53;;;11.60;100.00
46087;BME280;31824;49.648;8.640;2023-02-18T05:26:01;101101.63;;;11.60;100.00
46087;BME280;31824;49.648;8.640;2023-02-18T05:29:22;101101.03;;;11.54;100.00
46087;BME280;31824;49.648;8.640;2023-02-18T05:32:42;101099.31;;;11.54;100.00
46087;BME280;31824;49.648;8.640;2023-02-18T05:36:03;101088.31;;;11.49;100.00
46087;BME280;31824;49.648;8.640;2023-02-18T05:39:25;101088.63;;;11.44;100.00
46087;BME280;31824;49.648;8.640;2023-02-18T05:42:47;101095.72;;;11.36;100.00
46087;BME280;31824;49.648;8.640;2023-02-18T05:46:07;101099.16;;;11.53;100.00
46087;BME280;31824;49.648;8.640;2023-02-18T05:49:30;101102.28;;;11.57;100.00
46087;BME280;31824;49.648;8.640;2023-02-18T05:52:50;101099.00;;;11.42;100.00
46087;BME280;31824;49.648;8.640;2023-02-18T05:56:12;101098.50;;;11.29;100.00
46087;BME280;31824;49.648;8.640;2023-02-18T05:59:33;101089.28;;;11.59;100.00
46087;BME280;31824;49.648;8.640;2023-02-18T06:02:54;101097.47;;;11.62;100.00
46087;BME280;31824;49.648;8.640;2023-02-18T06:06:14;101100.56;;;11.58;100.00
46087;BME280;31824;49.648;8.640;2023-02-18T06:09:35;101086.03;;;11.61;100.00
46087;BME280;31824;49.648;8.640;2023-02-18T06:12:57;101084.63;;;11.65;100.00
46087;BME280;31824;49.648;8.640;2023-02-18T06:16:17;101085.38;;;11.55;100.00
46087;BME280;31824;49.648;8.640;2023-02-18T06:19:38;101097.00;;;11.48;100.00
46087;BME280;31824;49.648;8.640;2023-02-18T06:22:59;101095.00;;;11.63;100.00
46087;BME280;31824;49.648;8.640;2023-02-18T06:26:19;101088.78;;;11.54;100.00
46087;BME280;31824;49.648;8.640;2023-02-18T06:29:41;101072.22;;;11.46;100.00
46087;BME280;31824;49.648;8.640;2023-02-18T06:33:02;101060.91;;;11.47;100.00
46087;BME280;31824;49.648;8.640;2023-02-18T06:36:25;101064.00;;;11.43;100.00
46087;BME280;31824;49.648;8.640;2023-02-18T06:39:46;101060.31;;;11.41;100.00
46087;BME280;31824;49.648;8.640;2023-02-18T06:43:06;101051.19;;;11.46;100.00
46087;BME280;31824;49.648;8.640;2023-02-18T06:46:28;101065.41;;;11.48;100.00
46087;BME280;31824;49.648;8.640;2023-02-18T06:49:49;101067.44;;;11.51;100.00
46087;BME280;31824;49.648;8.640;2023-02-18T06:53:11;101056.91;;;11.51;100.00
46087;BME280;31824;49.648;8.640;2023-02-18T06:56:32;101065.56;;;11.50;100.00
46087;BME280;31824;49.648;8.640;2023-02-18T06:59:53;101067.59;;;11.53;100.00
46087;BME280;31824;49.648;8.640;2023-02-18T07:03:15;101064.94;;;11.53;100.00
46087;BME280;31824;49.648;8.640;2023-02-18T07:06:35;101060.16;;;11.48;100.00
46087;BME280;31824;49.648;8.640;2023-02-18T07:09:58;101049.28;;;11.37;100.00
46087;BME280;31824;49.648;8.640;2023-02-18T07:13:19;101060.25;;;11.32;100.00
46087;BME280;31824;49.648;8.640;2023-02-18T07:16:39;101050.69;;;11.33;100.00
46087;BME280;31824;49.648;8.640;2023-02-18T07:20:02;101041.38;;;11.28;100.00
46087;BME280;31824;49.648;8.640;2023-02-18T07:23:26;101044.16;;;11.29;100.00
46087;BME280;31824;49.648;8.640;2023-02-18T07:26:47;101045.09;;;11.30;100.00
46087;BME280;31824;49.648;8.640;2023-02-18T07:30:08;101023.72;;;11.27;100.00
46087;BME280;31824;49.648;8.640;2023-02-18T07:33:29;101027.47;;;11.29;100.00
46087;BME280;31824;49.648;8.640;2023-02-18T07:36:51;101002.72;;;11.53;100.00
46087;BME280;31824;49.648;8.640;2023-02-18T07:40:13;101021.91;;;11.43;100.00
46087;BME280;31824;49.648;8.640;2023-02-18T07:43:36;101024.06;;;11.39;100.00
46087;BME280;31824;49.648;8.640;2023-02-18T07:46:56;101027.16;;;11.43;100.00
46087;BME280;31824;49.648;8.640;2023-02-18T07:50:17;101019.31;;;11.70;100.00
46087;BME280;31824;49.648;8.640;2023-02-18T07:53:39;101024.72;;;11.54;100.00
46087;BME280;31824;49.648;8.640;2023-02-18T07:57:01;101023.00;;;11.72;100.00
46087;BME280;31824;49.648;8.640;2023-02-18T08:00:22;101028.56;;;11.75;100.00
46087;BME280;31824;49.648;8.640;2023-02-18T08:03:43;101029.81;;;11.78;100.00
46087;BME280;31824;49.648;8.640;2023-02-18T08:07:06;101027.50;;;11.73;100.00
46087;BME280;31824;49.648;8.640;2023-02-18T08:10:28;101027.50;;;11.81;100.00
46087;BME280;31824;49.648;8.640;2023-02-18T08:13:48;101009.56;;;11.69;100.00
46087;BME280;31824;49.648;8.640;2023-02-18T08:17:08;101028.09;;;11.79;100.00
46087;BME280;31824;49.648;8.640;2023-02-18T08:20:28;101011.41;;;11.87;100.00
46087;BME280;31824;49.648;8.640;2023-02-18T08:23:51;101012.19;;;11.95;100.00
46087;BME280;31824;49.648;8.640;2023-02-18T08:27:13;101024.13;;;12.00;100.00
46087;BME280;31824;49.648;8.640;2023-02-18T08:30:34;101026.47;;;11.97;100.00
46087;BME280;31824;49.648;8.640;2023-02-18T08:33:56;101011.56;;;12.15;100.00
46087;BME280;31824;49.648;8.640;2023-02-18T08:37:17;101006.56;;;12.18;100.00
46087;BME280;31824;49.648;8.640;2023-02-18T08:40:38;101013.75;;;12.10;100.00
46087;BME280;31824;49.648;8.640;2023-02-18T08:44:01;101004.88;;;12.19;100.00
46087;BME280;31824;49.648;8.640;2023-02-18T08:47:21;101003.03;;;12.09;100.00
46087;BME280;31824;49.648;8.640;2023-02-18T08:51:11;101007.34;;;12.26;100.00
46087;BME280;31824;49.648;8.640;2023-02-18T08:54:32;100996.94;;;12.27;100.00
46087;BME280;31824;49.648;8.640;2023-02-18T08:57:53;101002.22;;;12.27;100.00
46087;BME280;31824;49.648;8.640;2023-02-18T09:01:18;101011.03;;;12.28;100.00
46087;BME280;31824;49.648;8.640;2023-02-18T09:04:40;101008.59;;;12.29;100.00
46087;BME280;31824;49.648;8.640;2023-02-18T09:08:01;101010.41;;;12.30;100.00
46087;BME280;31824;49.648;8.640;2023-02-18T09:11:21;101017.84;;;12.35;100.00
46087;BME280;31824;49.648;8.640;2023-02-18T09:14:42;101025.31;;;12.30;100.00
46087;BME280;31824;49.648;8.640;2023-02-18T09:18:05;101020.19;;;12.31;100.00
46087;BME280;31824;49.648;8.640;2023-02-18T09:24:04;101035.69;;;12.20;100.00
46087;BME280;31824;49.648;8.640;2023-02-18T09:27:09;101017.88;;;12.26;100.00
46087;BME280;31824;49.648;8.640;2023-02-18T09:30:12;101015.06;;;12.33;100.00
46087;BME280;31824;49.648;8.640;2023-02-18T09:33:14;101019.41;;;12.32;100.00
46087;BME280;31824;49.648;8.640;2023-02-18T09:36:17;101009.47;;;12.39;100.00
46087;BME280;31824;49.648;8.640;2023-02-18T09:39:23;101022.97;;;12.42;100.00
46087;BME280;31824;49.648;8.640;2023-02-18T09:42:28;101014.25;;;12.43;100.00
46087;BME280;31824;49.648;8.640;2023-02-18T09:45:32;101015.69;;;12.39;100.00
46087;BME280;31824;49.648;8.640;2023-02-18T09:48:35;101034.41;;;12.42;100.00
46087;BME280;31824;49.648;8.640;2023-02-18T09:51:38;101032.69;;;12.52;100.00
46087;BME280;31824;49.648;8.640;2023-02-18T09:54:43;101020.31;;;12.42;100.00
46087;BME280;31824;49.648;8.640;2023-02-18T09:57:49;101026.22;;;12.39;100.00
46087;BME280;31824;49.648;8.640;2023-02-18T10:00:54;101035.66;;;12.37;100.00
46087;BME280;31824;49.648;8.640;2023-02-18T10:03:59;101031.94;;;12.44;100.00
46087;BME280;31824;49.648;8.640;2023-02-18T10:07:02;101026.94;;;12.56;100.00
46087;BME280;31824;49.648;8.640;2023-02-18T10:10:15;101018.56;;;12.60;100.00
46087;BME280;31824;49.648;8.640;2023-02-18T10:13:19;101021.94;;;12.68;100.00
46087;BME280;31824;49.648;8.640;2023-02-18T10:16:22;101025.31;;;12.75;100.00
46087;BME280;31824;49.648;8.640;2023-02-18T10:19:29;101014.91;;;12.77;100.00
46087;BME280;31824;49.648;8.640;2023-02-18T10:22:32;101024.41;;;12.66;100.00
46087;BME280;31824;49.648;8.640;2023-02-18T10:25:37;101030.16;;;12.62;100.00
46087;BME280;31824;49.648;8.640;2023-02-18T10:28:43;101023.97;;;12.70;100.00
46087;BME280;31824;49.648;8.640;2023-02-18T10:31:51;101037.44;;;12.64;100.00
46087;BME280;31824;49.648;8.640;2023-02-18T10:34:59;101037.50;;;12.56;100.00
46087;BME280;31824;49.648;8.640;2023-02-18T10:38:10;101044.00;;;12.50;100.00
46087;BME280;31824;49.648;8.640;2023-02-18T10:41:24;101042.13;;;12.49;100.00
46087;BME280;31824;49.648;8.640;2023-02-18T10:44:36;101060.13;;;12.54;100.00
46087;BME280;31824;49.648;8.640;2023-02-18T10:47:51;101046.44;;;12.66;100.00
46087;BME280;31824;49.648;8.640;2023-02-18T10:50:59;101049.56;;;12.62;100.00
46087;BME280;31824;49.648;8.640;2023-02-18T10:54:03;101045.25;;;12.54;100.00
46087;BME280;31824;49.648;8.640;2023-02-18T10:57:14;101031.88;;;12.61;100.00
46087;BME280;31824;49.648;8.640;2023-02-18T11:00:20;101049.91;;;12.57;100.00
46087;BME280;31824;49.648;8.640;2023-02-18T11:03:37;101047.25;;;12.57;100.00
46087;BME280;31824;49.648;8.640;2023-02-18T11:06:42;101046.78;;;12.61;100.00
46087;BME280;31824;49.648;8.640;2023-02-18T11:09:47;101023.50;;;12.65;100.00
46087;BME280;31824;49.648;8.640;2023-02-18T11:12:55;101033.75;;;12.62;100.00
46087;BME280;31824;49.648;8.640;2023-02-18T11:16:01;101039.31;;;12.65;100.00
46087;BME280;31824;49.648;8.640;2023-02-18T11:19:32;101026.09;;;12.74;100.00
46087;BME280;31824;49.648;8.640;2023-02-18T11:22:35;101023.63;;;12.76;100.00
46087;BME280;31824;49.648;8.640;2023-02-18T11:25:52;101034.31;;;12.77;100.00
46087;BME280;31824;49.648;8.640;2023-02-18T11:28:59;101012.44;;;12.78;100.00
46087;BME280;31824;49.648;8.640;2023-02-18T11:32:02;101005.03;;;12.74;100.00
46087;BME280;31824;49.648;8.640;2023-02-18T11:35:04;101000.22;;;12.70;100.00
46087;BME280;31824;49.648;8.640;2023-02-18T11:38:22;100979.38;;;12.82;100.00
46087;BME280;31824;49.648;8.640;2023-02-18T11:41:31;100989.47;;;13.05;100.00
46087;BME280;31824;49.648;8.640;2023-02-18T11:44:37;100991.75;;;13.11;100.00
46087;BME280;31824;49.648;8.640;2023-02-18T11:47:40;100998.91;;;13.12;100.00
46087;BME280;31824;49.648;8.640;2023-02-18T11:50:43;100994.78;;;13.52;100.00
46087;BME280;31824;49.648;8.640;2023-02-18T11:53:57;100968.94;;;13.39;100.00
46087;BME280;31824;49.648;8.640;2023-02-18T11:57:02;100973.81;;;13.54;100.00
46087;BME280;31824;49.648;8.640;2023-02-18T12:00:16;100968.03;;;13.39;100.00
46087;BME280;31824;49.648;8.640;2023-02-18T12:03:27;100954.06;;;13.40;100.00
46087;BME280;31824;49.648;8.640;2023-02-18T12:06:38;100947.97;;;13.60;100.00
46087;BME280;31824;49.648;8.640;2023-02-18T12:09:46;100954.41;;;13.53;100.00
46087;BME280;31824;49.648;8.640;2023-02-18T12:12:55;100944.91;;;13.55;100.00
46087;BME280;31824;49.648;8.640;2023-02-18T12:16:05;100953.75;;;13.37;100.00
46087;BME280;31824;49.648;8.640;2023-02-18T12:19:21;100947.38;;;13.15;100.00
46087;BME280;31824;49.648;8.640;2023-02-18T12:22:39;100943.31;;;13.19;100.00
46087;BME280;31824;49.648;8.640;2023-02-18T12:25:47;100932.06;;;13.03;100.00
46087;BME280;31824;49.648;8.640;2023-02-18T12:29:18;100933.59;;;13.09;100.00
46087;BME280;31824;49.648;8.640;2023-02-18T12:32:40;100916.41;;;13.04;100.00
46087;BME280;31824;49.648;8.640;2023-02-18T12:36:00;100935.34;;;13.00;100.00
46087;BME280;31824;49.648;8.640;2023-02-18T12:39:11;100916.84;;;13.09;100.00
46087;BME280;31824;49.648;8.640;2023-02-18T12:42:28;100917.91;;;13.11;100.00
46087;BME280;31824;49.648;8.640;2023-02-18T12:45:47;100903.88;;;13.21;100.00
46087;BME280;31824;49.648;8.640;2023-02-18T12:49:00;100902.38;;;13.14;100.00
46087;BME280;31824;49.648;8.640;2023-02-18T12:52:14;100900.38;;;13.11;100.00
46087;BME280;31824;49.648;8.640;2023-02-18T12:55:29;100889.22;;;13.05;100.00
46087;BME280;31824;49.648;8.640;2023-02-18T12:58:48;100892.59;;;13.13;100.00
46087;BME280;31824;49.648;8.640;2023-02-18T13:02:01;100883.78;;;13.12;100.00
46087;BME280;31824;49.648;8.640;2023-02-18T13:05:13;100891.25;;;13.08;100.00
46087;BME280;31824;49.648;8.640;2023-02-18T13:08:32;100871.34;;;13.11;100.00
46087;BME280;31824;49.648;8.640;2023-02-18T13:11:44;100880.41;;;13.05;100.00
46087;BME280;31824;49.648;8.640;2023-02-18T13:14:52;100859.16;;;13.03;100.00
46087;BME280;31824;49.648;8.640;2023-02-18T13:18:02;100861.44;;;13.09;100.00
46087;BME280;31824;49.648;8.640;2023-02-18T13:21:11;100859.84;;;13.11;100.00
46087;BME280;31824;49.648;8.640;2023-02-18T13:24:26;100857.53;;;13.14;100.00
46087;BME280;31824;49.648;8.640;2023-02-18T13:27:35;100856.16;;;13.09;100.00
46087;BME280;31824;49.648;8.640;2023-02-18T13:30:44;100859.72;;;13.09;100.00
46087;BME280;31824;49.648;8.640;2023-02-18T13:33:53;100858.41;;;13.04;100.00
46087;BME280;31824;49.648;8.640;2023-02-18T13:37:05;100865.13;;;12.92;100.00
46087;BME280;31824;49.648;8.640;2023-02-18T13:40:15;100855.09;;;13.07;100.00
46087;BME280;31824;49.648;8.640;2023-02-18T13:43:27;100855.25;;;13.08;100.00
46087;BME280;31824;49.648;8.640;2023-02-18T13:46:30;100847.75;;;13.13;100.00
46087;BME280;31824;49.648;8.640;2023-02-18T13:49:33;100842.06;;;13.08;100.00
46087;BME280;31824;49.648;8.640;2023-02-18T13:52:40;100859.72;;;13.09;100.00
46087;BME280;31824;49.648;8.640;2023-02-18T13:55:53;100853.13;;;13.04;100.00
46087;BME280;31824;49.648;8.640;2023-02-18T13:58:59;100863.78;;;12.87;100.00
46087;BME280;31824;49.648;8.640;2023-02-18T14:02:30;100863.19;;;12.80;100.00
46087;BME280;31824;49.648;8.640;2023-02-18T14:05:38;100861.13;;;12.68;100.00
46087;BME280;31824;49.648;8.640;2023-02-18T14:08:43;100862.84;;;12.86;100.00
46087;BME280;31824;49.648;8.640;2023-02-18T14:11:47;100853.16;;;12.76;100.00
46087;BME280;31824;49.648;8.640;2023-02-18T14:14:49;100888.53;;;12.78;100.00
46087;BME280;31824;49.648;8.640;2023-02-18T14:18:09;100875.50;;;12.71;100.00
46087;BME280;31824;49.648;8.640;2023-02-18T14:21:37;100876.97;;;12.68;100.00
46087;BME280;31824;49.648;8.640;2023-02-18T14:24:47;100883.78;;;12.65;100.00
46087;BME280;31824;49.648;8.640;2023-02-18T14:27:50;100864.81;;;12.70;100.00
46087;BME280;31824;49.648;8.640;2023-02-18T14:30:53;100886.06;;;12.71;100.00
46087;BME280;31824;49.648;8.640;2023-02-18T14:37:56;100875.31;;;12.59;100.00
46087;BME280;31824;49.648;8.640;2023-02-18T14:41:13;100876.16;;;12.69;100.00
46087;BME280;31824;49.648;8.640;2023-02-18T14:44:36;100876.50;;;12.63;100.00
46087;BME280;31824;49.648;8.640;2023-02-18T14:48:26;100861.63;;;12.63;100.00
46087;BME280;31824;49.648;8.640;2023-02-18T14:51:34;100862.25;;;12.61;100.00
46087;BME280;31824;49.648;8.640;2023-02-18T14:54:38;100869.72;;;12.56;100.00
46087;BME280;31824;49.648;8.640;2023-02-18T14:57:45;100872.06;;;12.53;100.00
46087;BME280;31824;49.648;8.640;2023-02-18T15:00:49;100870.94;;;12.60;100.00
46087;BME280;31824;49.648;8.640;2023-02-18T15:03:53;100878.88;;;12.51;100.00
46087;BME280;31824;49.648;8.640;2023-02-18T15:07:00;100871.63;;;12.48;100.00
46087;BME280;31824;49.648;8.640;2023-02-18T15:10:02;100877.81;;;12.49;100.00
46087;BME280;31824;49.648;8.640;2023-02-18T15:13:08;100880.19;;;12.46;100.00
46087;BME280;31824;49.648;8.640;2023-02-18T15:16:19;100872.63;;;12.40;100.00
46087;BME280;31824;49.648;8.640;2023-02-18T15:19:25;100880.47;;;12.49;100.00
46087;BME280;31824;49.648;8.640;2023-02-18T15:22:31;100876.84;;;12.57;100.00
46087;BME280;31824;49.648;8.640;2023-02-18T15:25:34;100875.06;;;12.39;100.00
46087;BME280;31824;49.648;8.640;2023-02-18T15:28:53;100873.34;;;12.11;100.00
46087;BME280;31824;49.648;8.640;2023-02-18T15:31:58;100882.25;;;11.94;100.00
46087;BME280;31824;49.648;8.640;2023-02-18T15:35:11;100890.09;;;12.03;100.00
46087;BME280;31824;49.648;8.640;2023-02-18T15:38:16;100897.03;;;12.11;100.00
46087;BME280;31824;49.648;8.640;2023-02-18T15:41:20;100912.47;;;11.63;100.00
46087;BME280;31824;49.648;8.640;2023-02-18T15:44:27;100900.56;;;11.49;100.00
46087;BME280;31824;49.648;8.640;2023-02-18T15:47:30;100893.94;;;11.44;100.00
46087;BME280;31824;49.648;8.640;2023-02-18T15:50:35;100901.81;;;11.61;100.00
46087;BME280;31824;49.648;8.640;2023-02-18T15:53:38;100897.47;;;11.62;100.00
46087;BME280;31824;49.648;8.640;2023-02-18T15:56:45;100903.03;;;11.65;100.00
46087;BME280;31824;49.648;8.640;2023-02-18T15:59:56;100907.06;;;11.61;100.00
46087;BME280;31824;49.648;8.640;2023-02-18T16:03:03;100899.91;;;11.78;100.00
46087;BME280;31824;49.648;8.640;2023-02-18T16:06:11;100901.59;;;11.77;100.00
46087;BME280;31824;49.648;8.640;2023-02-18T16:09:17;100894.03;;;11.80;100.00
46087;BME280;31824;49.648;8.640;2023-02-18T16:12:26;100897.56;;;11.81;100.00
46087;BME280;31824;49.648;8.640;2023-02-18T16:15:36;100898.34;;;11.80;100.00
46087;BME280;31824;49.648;8.640;2023-02-18T16:18:40;100890.94;;;11.76;100.00
46087;BME280;31824;49.648;8.640;2023-02-18T16:21:43;100885.94;;;11.79;100.00
46087;BME280;31824;49.648;8.640;2023-02-18T16:24:48;100885.38;;;11.73;100.00
46087;BME280;31824;49.648;8.640;2023-02-18T16:28:03;100896.19;;;11.76;100.00
46087;BME280;31824;49.648;8.640;2023-02-18T16:31:09;100888.31;;;11.67;100.00
46087;BME280;31824;49.648;8.640;2023-02-18T16:34:11;100888.63;;;11.70;100.00
46087;BME280;31824;49.648;8.640;2023-02-18T16:37:13;100892.34;;;11.72;100.00
46087;BME280;31824;49.648;8.640;2023-02-18T16:40:35;100900.53;;;11.75;100.00
46087;BME280;31824;49.648;8.640;2023-02-18T16:43:40;100899.91;;;11.69;100.00
46087;BME280;31824;49.648;8.640;2023-02-18T16:46:43;100902.41;;;11.68;100.00
46087;BME280;31824;49.648;8.640;2023-02-18T16:49:48;100910.00;;;11.64;100.00
46087;BME280;31824;49.648;8.640;2023-02-18T16:52:50;100908.56;;;11.68;100.00
46087;BME280;31824;49.648;8.640;2023-02-18T16:55:55;100921.44;;;11.65;100.00
46087;BME280;31824;49.648;8.640;2023-02-18T16:58:57;100914.50;;;11.65;100.00
46087;BME280;31824;49.648;8.640;2023-02-18T17:02:01;100924.41;;;11.59;100.00
46087;BME280;31824;49.648;8.640;2023-02-18T17:05:04;100911.72;;;11.55;100.00
46087;BME280;31824;49.648;8.640;2023-02-18T17:08:20;100919.59;;;11.55;100.00
46087;BME280;31824;49.648;8.640;2023-02-18T17:11:29;100918.38;;;11.43;100.00
46087;BME280;31824;49.648;8.640;2023-02-18T17:14:32;100915.56;;;11.50;100.00
46087;BME280;31824;49.648;8.640;2023-02-18T17:17:36;100936.19;;;11.45;100.00
46087;BME280;31824;49.648;8.640;2023-02-18T17:20:38;100929.19;;;11.46;100.00
46087;BME280;31824;49.648;8.640;2023-02-18T17:23:42;100937.09;;;11.37;100.00
46087;BME280;31824;49.648;8.640;2023-02-18T17:26:44;100947.78;;;11.39;100.00
46087;BME280;31824;49.648;8.640;2023-02-18T17:29:46;100932.75;;;11.38;100.00
46087;BME280;31824;49.648;8.640;2023-02-18T17:32:52;100938.34;;;11.32;100.00
46087;BME280;31824;49.648;8.640;2023-02-18T17:35:54;100936.78;;;11.34;100.00
46087;BME280;31824;49.648;8.640;2023-02-18T17:38:57;100940.50;;;11.27;100.00
46087;BME280;31824;49.648;8.640;2023-02-18T17:41:59;100929.34;;;11.21;100.00
46087;BME280;31824;49.648;8.640;2023-02-18T17:45:12;100932.91;;;11.22;100.00
46087;BME280;31824;49.648;8.640;2023-02-18T17:48:19;100948.38;;;11.19;100.00
46087;BME280;31824;49.648;8.640;2023-02-18T17:51:23;100935.38;;;11.20;100.00
46087;BME280;31824;49.648;8.640;2023-02-18T17:54:25;100933.34;;;11.00;100.00
46087;BME280;31824;49.648;8.640;2023-02-18T17:57:28;100942.50;;;11.12;100.00
46087;BME280;31824;49.648;8.640;2023-02-18T18:00:32;100944.03;;;11.10;100.00
46087;BME280;31824;49.648;8.640;2023-02-18T18:03:36;100950.38;;;11.04;100.00
46087;BME280;31824;49.648;8.640;2023-02-18T18:06:39;100957.00;;;11.00;100.00
46087;BME280;31824;49.648;8.640;2023-02-18T18:09:41;100957.16;;;10.93;100.00
46087;BME280;31824;49.648;8.640;2023-02-18T18:12:44;100951.53;;;10.81;100.00
46087;BME280;31824;49.648;8.640;2023-02-18T18:15:46;100957.22;;;10.59;100.00
46087;BME280;31824;49.648;8.640;2023-02-18T18:18:49;100964.97;;;10.75;100.00
46087;BME280;31824;49.648;8.640;2023-02-18T18:21:51;100972.09;;;10.76;100.00
46087;BME280;31824;49.648;8.640;2023-02-18T18:24:54;100966.03;;;10.60;100.00
46087;BME280;31824;49.648;8.640;2023-02-18T18:27:56;100977.63;;;10.62;100.00
46087;BME280;31824;49.648;8.640;2023-02-18T18:30:58;100982.09;;;10.63;100.00
46087;BME280;31824;49.648;8.640;2023-02-18T18:34:04;100985.94;;;10.58;100.00
46087;BME280;31824;49.648;8.640;2023-02-18T18:37:05;100984.09;;;10.57;100.00